sensor_id;sensor_type;location;lat;lon;timestamp;temperature;humidity
14908;DHT22;7545;52.092;7.006;2023-03-02T00:01:57;2.50;99.90
14908;DHT22;7545;52.092;7.006;2023-03-02T00:04:38;2.50;99.90
14908;DHT22;7545;52.092;7.006;2023-03-02T00:07:08;2.50;99.90
14908;DHT22;7545;52.092;7.006;2023-03-02T00:09:35;2.50;99.90
14908;DHT22;7545;52.092;7.006;2023-03-02T00:12:01;2.50;99.90
14908;DHT22;7545;52.092;7.006;2023-03-02T00:14:28;2.50;99.90
14908;DHT22;7545;52.092;7.006;2023-03-02T00:16:53;2.50;99.90
14908;DHT22;7545;52.092;7.006;2023-03-02T00:19:19;2.40;99.90
14908;DHT22;7545;52.092;7.006;2023-03-02T00:21:45;2.50;99.90
14908;DHT22;7545;52.092;7.006;2023-03-02T00:24:11;2.40;99.90
14908;DHT22;7545;52.092;7.006;2023-03-02T00:26:39;2.50;99.90
14908;DHT22;7545;52.092;7.006;2023-03-02T00:29:04;2.40;99.90
14908;DHT22;7545;52.092;7.006;2023-03-02T00:31:30;2.40;99.90
14908;DHT22;7545;52.092;7.006;2023-03-02T00:33:56;2.30;99.90
14908;DHT22;7545;52.092;7.006;2023-03-02T00:36:22;2.40;99.90
14908;DHT22;7545;52.092;7.006;2023-03-02T00:38:48;2.30;99.90
14908;DHT22;7545;52.092;7.006;2023-03-02T00:41:14;2.40;99.90
14908;DHT22;7545;52.092;7.006;2023-03-02T00:43:41;2.30;99.90
14908;DHT22;7545;52.092;7.006;2023-03-02T00:46:12;2.30;99.90
14908;DHT22;7545;52.092;7.006;2023-03-02T00:48:38;2.40;99.90
14908;DHT22;7545;52.092;7.006;2023-03-02T00:51:04;2.40;99.90
14908;DHT22;7545;52.092;7.006;2023-03-02T00:53:31;2.40;99.90
14908;DHT22;7545;52.092;7.006;2023-03-02T00:55:57;2.40;99.90
14908;DHT22;7545;52.092;7.006;2023-03-02T00:58:22;2.40;99.90
14908;DHT22;7545;52.092;7.006;2023-03-02T01:00:49;2.40;99.90
14908;DHT22;7545;52.092;7.006;2023-03-02T01:03:15;2.40;99.90
14908;DHT22;7545;52.092;7.006;2023-03-02T01:05:41;2.40;99.90
14908;DHT22;7545;52.092;7.006;2023-03-02T01:08:06;2.40;99.90
14908;DHT22;7545;52.092;7.006;2023-03-02T01:10:32;2.50;99.90
14908;DHT22;7545;52.092;7.006;2023-03-02T01:12:58;2.40;99.90
14908;DHT22;7545;52.092;7.006;2023-03-02T01:15:23;2.50;99.90
14908;DHT22;7545;52.092;7.006;2023-03-02T01:17:49;2.50;99.90
14908;DHT22;7545;52.092;7.006;2023-03-02T01:20:16;2.50;99.90
14908;DHT22;7545;52.092;7.006;2023-03-02T01:22:42;2.50;99.90
14908;DHT22;7545;52.092;7.006;2023-03-02T01:25:09;2.40;99.90
14908;DHT22;7545;52.092;7.006;2023-03-02T01:27:35;2.50;99.90
14908;DHT22;7545;52.092;7.006;2023-03-02T01:30:02;2.50;99.90
14908;DHT22;7545;52.092;7.006;2023-03-02T01:32:28;2.50;99.90
14908;DHT22;7545;52.092;7.006;2023-03-02T01:34:53;2.40;99.90
14908;DHT22;7545;52.092;7.006;2023-03-02T01:37:19;2.40;99.90
14908;DHT22;7545;52.092;7.006;2023-03-02T01:39:48;2.50;99.90
14908;DHT22;7545;52.092;7.006;2023-03-02T01:42:14;2.40;99.90
14908;DHT22;7545;52.092;7.006;2023-03-02T01:44:51;2.40;99.90
14908;DHT22;7545;52.092;7.006;2023-03-02T01:49:59;2.40;99.90
14908;DHT22;7545;52.092;7.006;2023-03-02T01:52:28;2.40;99.90
14908;DHT22;7545;52.092;7.006;2023-03-02T01:54:57;2.30;99.90
14908;DHT22;7545;52.092;7.006;2023-03-02T01:57:30;2.30;99.90
14908;DHT22;7545;52.092;7.006;2023-03-02T02:00:03;2.30;99.90
14908;DHT22;7545;52.092;7.006;2023-03-02T02:02:33;2.30;99.90
14908;DHT22;7545;52.092;7.006;2023-03-02T02:04:59;2.30;99.90
14908;DHT22;7545;52.092;7.006;2023-03-02T02:07:25;2.30;99.90
14908;DHT22;7545;52.092;7.006;2023-03-02T02:09:52;2.20;99.90
14908;DHT22;7545;52.092;7.006;2023-03-02T02:12:20;2.20;99.90
14908;DHT22;7545;52.092;7.006;2023-03-02T02:14:47;2.30;99.90
14908;DHT22;7545;52.092;7.006;2023-03-02T02:17:14;2.30;99.90
14908;DHT22;7545;52.092;7.006;2023-03-02T02:25:41;2.20;99.90
14908;DHT22;7545;52.092;7.006;2023-03-02T02:28:12;2.20;99.90
14908;DHT22;7545;52.092;7.006;2023-03-02T02:30:39;2.20;99.90
14908;DHT22;7545;52.092;7.006;2023-03-02T02:33:06;2.20;99.90
14908;DHT22;7545;52.092;7.006;2023-03-02T02:35:36;2.20;99.90
14908;DHT22;7545;52.092;7.006;2023-03-02T02:38:04;2.20;99.90
14908;DHT22;7545;52.092;7.006;2023-03-02T02:40:39;2.10;99.90
14908;DHT22;7545;52.092;7.006;2023-03-02T02:43:08;2.10;99.90
14908;DHT22;7545;52.092;7.006;2023-03-02T02:45:33;2.10;99.90
14908;DHT22;7545;52.092;7.006;2023-03-02T02:48:00;2.10;99.90
14908;DHT22;7545;52.092;7.006;2023-03-02T02:50:33;2.00;99.90
14908;DHT22;7545;52.092;7.006;2023-03-02T02:53:34;2.00;99.90
14908;DHT22;7545;52.092;7.006;2023-03-02T02:56:03;2.00;99.90
14908;DHT22;7545;52.092;7.006;2023-03-02T02:58:38;2.00;99.90
14908;DHT22;7545;52.092;7.006;2023-03-02T03:01:05;2.00;99.90
14908;DHT22;7545;52.092;7.006;2023-03-02T03:03:34;2.00;99.90
14908;DHT22;7545;52.092;7.006;2023-03-02T03:06:03;2.00;99.90
14908;DHT22;7545;52.092;7.006;2023-03-02T03:11:14;2.00;99.90
14908;DHT22;7545;52.092;7.006;2023-03-02T03:13:45;2.00;99.90
14908;DHT22;7545;52.092;7.006;2023-03-02T03:16:14;2.00;99.90
14908;DHT22;7545;52.092;7.006;2023-03-02T03:18:44;1.90;99.90
14908;DHT22;7545;52.092;7.006;2023-03-02T03:21:11;1.90;99.90
14908;DHT22;7545;52.092;7.006;2023-03-02T03:23:37;1.90;99.90
14908;DHT22;7545;52.092;7.006;2023-03-02T03:26:05;1.90;99.90
14908;DHT22;7545;52.092;7.006;2023-03-02T03:28:32;1.90;99.90
14908;DHT22;7545;52.092;7.006;2023-03-02T03:30:58;1.90;99.90
14908;DHT22;7545;52.092;7.006;2023-03-02T03:33:24;1.80;99.90
14908;DHT22;7545;52.092;7.006;2023-03-02T03:35:49;1.80;99.90
14908;DHT22;7545;52.092;7.006;2023-03-02T03:38:16;1.80;99.90
14908;DHT22;7545;52.092;7.006;2023-03-02T03:40:42;1.80;99.90
14908;DHT22;7545;52.092;7.006;2023-03-02T03:43:07;1.80;99.90
14908;DHT22;7545;52.092;7.006;2023-03-02T03:45:34;1.70;99.90
14908;DHT22;7545;52.092;7.006;2023-03-02T03:47:59;1.70;99.90
14908;DHT22;7545;52.092;7.006;2023-03-02T03:50:25;1.70;99.90
14908;DHT22;7545;52.092;7.006;2023-03-02T03:52:51;1.70;99.90
14908;DHT22;7545;52.092;7.006;2023-03-02T03:55:17;1.70;99.90
14908;DHT22;7545;52.092;7.006;2023-03-02T03:57:43;1.70;99.90
14908;DHT22;7545;52.092;7.006;2023-03-02T04:00:11;1.60;99.90
14908;DHT22;7545;52.092;7.006;2023-03-02T04:02:39;1.60;99.90
14908;DHT22;7545;52.092;7.006;2023-03-02T04:05:06;1.60;99.90
14908;DHT22;7545;52.092;7.006;2023-03-02T04:07:33;1.60;99.90
14908;DHT22;7545;52.092;7.006;2023-03-02T04:09:58;1.60;99.90
14908;DHT22;7545;52.092;7.006;2023-03-02T04:12:30;1.50;99.90
14908;DHT22;7545;52.092;7.006;2023-03-02T04:14:55;1.50;99.90
14908;DHT22;7545;52.092;7.006;2023-03-02T04:17:21;1.50;99.90
14908;DHT22;7545;52.092;7.006;2023-03-02T04:19:47;1.40;99.90
14908;DHT22;7545;52.092;7.006;2023-03-02T04:22:13;1.40;99.90
14908;DHT22;7545;52.092;7.006;2023-03-02T04:24:39;1.40;99.90
14908;DHT22;7545;52.092;7.006;2023-03-02T04:27:05;1.40;99.90
14908;DHT22;7545;52.092;7.006;2023-03-02T04:29:31;1.40;99.90
14908;DHT22;7545;52.092;7.006;2023-03-02T04:31:56;1.30;99.90
14908;DHT22;7545;52.092;7.006;2023-03-02T04:34:22;1.30;99.90
14908;DHT22;7545;52.092;7.006;2023-03-02T04:36:50;1.30;99.90
14908;DHT22;7545;52.092;7.006;2023-03-02T04:39:17;1.30;99.90
14908;DHT22;7545;52.092;7.006;2023-03-02T04:41:43;1.30;99.90
14908;DHT22;7545;52.092;7.006;2023-03-02T04:44:10;1.30;99.90
14908;DHT22;7545;52.092;7.006;2023-03-02T04:46:36;1.30;99.90
14908;DHT22;7545;52.092;7.006;2023-03-02T04:49:02;1.40;99.90
14908;DHT22;7545;52.092;7.006;2023-03-02T04:51:35;1.40;99.90
14908;DHT22;7545;52.092;7.006;2023-03-02T04:54:04;1.30;99.90
14908;DHT22;7545;52.092;7.006;2023-03-02T04:56:30;1.30;99.90
14908;DHT22;7545;52.092;7.006;2023-03-02T04:58:56;1.30;99.90
14908;DHT22;7545;52.092;7.006;2023-03-02T05:01:22;1.40;99.90
14908;DHT22;7545;52.092;7.006;2023-03-02T05:03:49;1.30;99.90
14908;DHT22;7545;52.092;7.006;2023-03-02T05:06:14;1.40;99.90
14908;DHT22;7545;52.092;7.006;2023-03-02T05:08:40;1.30;99.90
14908;DHT22;7545;52.092;7.006;2023-03-02T05:11:06;1.30;99.90
14908;DHT22;7545;52.092;7.006;2023-03-02T05:13:33;1.30;99.90
14908;DHT22;7545;52.092;7.006;2023-03-02T05:15:59;1.30;99.90
14908;DHT22;7545;52.092;7.006;2023-03-02T05:18:26;1.20;99.90
14908;DHT22;7545;52.092;7.006;2023-03-02T05:20:52;1.20;99.90
14908;DHT22;7545;52.092;7.006;2023-03-02T05:23:20;1.20;99.90
14908;DHT22;7545;52.092;7.006;2023-03-02T05:25:55;1.20;99.90
14908;DHT22;7545;52.092;7.006;2023-03-02T05:28:22;1.10;99.90
14908;DHT22;7545;52.092;7.006;2023-03-02T05:30:49;1.10;99.90
14908;DHT22;7545;52.092;7.006;2023-03-02T05:33:15;1.20;99.90
14908;DHT22;7545;52.092;7.006;2023-03-02T05:35:41;1.20;99.90
14908;DHT22;7545;52.092;7.006;2023-03-02T05:38:07;1.20;99.90
14908;DHT22;7545;52.092;7.006;2023-03-02T05:40:34;1.10;99.90
14908;DHT22;7545;52.092;7.006;2023-03-02T05:43:00;1.10;99.90
14908;DHT22;7545;52.092;7.006;2023-03-02T05:45:28;1.10;99.90
14908;DHT22;7545;52.092;7.006;2023-03-02T05:47:54;1.10;99.90
14908;DHT22;7545;52.092;7.006;2023-03-02T05:50:20;1.10;99.90
14908;DHT22;7545;52.092;7.006;2023-03-02T05:52:46;1.10;99.90
14908;DHT22;7545;52.092;7.006;2023-03-02T05:55:13;1.10;99.90
14908;DHT22;7545;52.092;7.006;2023-03-02T05:57:39;1.10;99.90
14908;DHT22;7545;52.092;7.006;2023-03-02T06:00:06;1.00;99.90
14908;DHT22;7545;52.092;7.006;2023-03-02T06:02:32;1.00;99.90
14908;DHT22;7545;52.092;7.006;2023-03-02T06:04:58;1.00;99.90
14908;DHT22;7545;52.092;7.006;2023-03-02T06:07:24;1.10;99.90
14908;DHT22;7545;52.092;7.006;2023-03-02T06:09:51;1.00;99.90
14908;DHT22;7545;52.092;7.006;2023-03-02T06:12:17;1.00;99.90
14908;DHT22;7545;52.092;7.006;2023-03-02T06:14:43;1.00;99.90
14908;DHT22;7545;52.092;7.006;2023-03-02T06:17:09;1.00;99.90
14908;DHT22;7545;52.092;7.006;2023-03-02T06:19:35;1.00;99.90
14908;DHT22;7545;52.092;7.006;2023-03-02T06:22:01;1.00;99.90
14908;DHT22;7545;52.092;7.006;2023-03-02T06:24:26;1.10;99.90
14908;DHT22;7545;52.092;7.006;2023-03-02T06:26:53;1.00;99.90
14908;DHT22;7545;52.092;7.006;2023-03-02T06:29:19;1.10;99.90
14908;DHT22;7545;52.092;7.006;2023-03-02T06:31:45;1.00;99.90
14908;DHT22;7545;52.092;7.006;2023-03-02T06:34:11;1.10;99.90
14908;DHT22;7545;52.092;7.006;2023-03-02T06:36:36;1.10;99.90
14908;DHT22;7545;52.092;7.006;2023-03-02T06:39:05;1.10;99.90
14908;DHT22;7545;52.092;7.006;2023-03-02T06:41:31;1.10;99.90
14908;DHT22;7545;52.092;7.006;2023-03-02T06:44:00;1.10;99.90
14908;DHT22;7545;52.092;7.006;2023-03-02T06:46:25;1.10;99.90
14908;DHT22;7545;52.092;7.006;2023-03-02T06:48:51;1.10;99.90
14908;DHT22;7545;52.092;7.006;2023-03-02T06:51:17;1.10;99.90
14908;DHT22;7545;52.092;7.006;2023-03-02T06:53:43;1.10;99.90
14908;DHT22;7545;52.092;7.006;2023-03-02T06:56:09;1.20;99.90
14908;DHT22;7545;52.092;7.006;2023-03-02T06:58:38;1.20;99.90
14908;DHT22;7545;52.092;7.006;2023-03-02T07:01:05;1.20;99.90
14908;DHT22;7545;52.092;7.006;2023-03-02T07:03:35;1.20;99.90
14908;DHT22;7545;52.092;7.006;2023-03-02T07:06:01;1.20;99.90
14908;DHT22;7545;52.092;7.006;2023-03-02T07:08:27;1.30;99.90
14908;DHT22;7545;52.092;7.006;2023-03-02T07:10:53;1.30;99.90
14908;DHT22;7545;52.092;7.006;2023-03-02T07:13:19;1.30;99.90
14908;DHT22;7545;52.092;7.006;2023-03-02T07:15:44;1.30;99.90
14908;DHT22;7545;52.092;7.006;2023-03-02T07:18:10;1.30;99.90
14908;DHT22;7545;52.092;7.006;2023-03-02T07:20:35;1.40;99.90
14908;DHT22;7545;52.092;7.006;2023-03-02T07:23:03;1.40;99.90
14908;DHT22;7545;52.092;7.006;2023-03-02T07:25:28;1.40;99.90
14908;DHT22;7545;52.092;7.006;2023-03-02T07:27:54;1.40;99.90
14908;DHT22;7545;52.092;7.006;2023-03-02T07:30:20;1.50;99.90
14908;DHT22;7545;52.092;7.006;2023-03-02T07:32:49;1.50;99.90
14908;DHT22;7545;52.092;7.006;2023-03-02T07:35:15;1.40;99.90
14908;DHT22;7545;52.092;7.006;2023-03-02T07:37:42;1.50;99.90
14908;DHT22;7545;52.092;7.006;2023-03-02T07:40:10;1.50;99.90
14908;DHT22;7545;52.092;7.006;2023-03-02T07:42:37;1.60;99.90
14908;DHT22;7545;52.092;7.006;2023-03-02T07:45:03;1.60;99.90
14908;DHT22;7545;52.092;7.006;2023-03-02T07:47:30;1.60;99.90
14908;DHT22;7545;52.092;7.006;2023-03-02T07:49:55;1.60;99.90
14908;DHT22;7545;52.092;7.006;2023-03-02T07:52:21;1.60;99.90
14908;DHT22;7545;52.092;7.006;2023-03-02T07:54:47;1.70;99.90
14908;DHT22;7545;52.092;7.006;2023-03-02T07:57:12;1.70;99.90
14908;DHT22;7545;52.092;7.006;2023-03-02T07:59:41;1.70;99.90
14908;DHT22;7545;52.092;7.006;2023-03-02T08:02:12;1.80;99.90
14908;DHT22;7545;52.092;7.006;2023-03-02T08:04:50;1.80;99.90
14908;DHT22;7545;52.092;7.006;2023-03-02T08:07:19;1.80;99.90
14908;DHT22;7545;52.092;7.006;2023-03-02T08:09:45;1.90;99.90
14908;DHT22;7545;52.092;7.006;2023-03-02T08:12:10;1.90;99.90
14908;DHT22;7545;52.092;7.006;2023-03-02T08:14:36;2.00;99.90
14908;DHT22;7545;52.092;7.006;2023-03-02T08:17:04;2.00;99.90
14908;DHT22;7545;52.092;7.006;2023-03-02T08:19:30;2.00;99.90
14908;DHT22;7545;52.092;7.006;2023-03-02T08:21:55;2.00;99.90
14908;DHT22;7545;52.092;7.006;2023-03-02T08:24:21;2.00;99.90
14908;DHT22;7545;52.092;7.006;2023-03-02T08:26:47;2.10;99.90
14908;DHT22;7545;52.092;7.006;2023-03-02T08:29:12;2.20;99.90
14908;DHT22;7545;52.092;7.006;2023-03-02T08:31:38;2.20;99.90
14908;DHT22;7545;52.092;7.006;2023-03-02T08:34:04;2.20;99.90
14908;DHT22;7545;52.092;7.006;2023-03-02T08:36:30;2.20;99.90
14908;DHT22;7545;52.092;7.006;2023-03-02T08:38:55;2.20;99.90
14908;DHT22;7545;52.092;7.006;2023-03-02T08:41:22;2.20;99.90
14908;DHT22;7545;52.092;7.006;2023-03-02T08:43:48;2.20;99.90
14908;DHT22;7545;52.092;7.006;2023-03-02T08:46:18;2.30;99.90
14908;DHT22;7545;52.092;7.006;2023-03-02T08:48:44;2.30;99.90
14908;DHT22;7545;52.092;7.006;2023-03-02T08:51:19;2.30;99.90
14908;DHT22;7545;52.092;7.006;2023-03-02T08:53:46;2.30;99.90
14908;DHT22;7545;52.092;7.006;2023-03-02T08:56:21;2.30;99.90
14908;DHT22;7545;52.092;7.006;2023-03-02T08:58:47;2.30;99.90
14908;DHT22;7545;52.092;7.006;2023-03-02T09:01:15;2.30;99.90
14908;DHT22;7545;52.092;7.006;2023-03-02T09:03:41;2.30;99.90
14908;DHT22;7545;52.092;7.006;2023-03-02T09:06:06;2.30;99.90
14908;DHT22;7545;52.092;7.006;2023-03-02T09:08:32;2.40;99.90
14908;DHT22;7545;52.092;7.006;2023-03-02T09:10:58;2.40;99.90
14908;DHT22;7545;52.092;7.006;2023-03-02T09:13:23;2.50;99.90
14908;DHT22;7545;52.092;7.006;2023-03-02T09:15:49;2.60;99.90
14908;DHT22;7545;52.092;7.006;2023-03-02T09:18:14;2.60;99.90
14908;DHT22;7545;52.092;7.006;2023-03-02T09:20:40;2.70;99.90
14908;DHT22;7545;52.092;7.006;2023-03-02T09:23:06;2.80;99.90
14908;DHT22;7545;52.092;7.006;2023-03-02T09:25:31;2.80;99.90
14908;DHT22;7545;52.092;7.006;2023-03-02T09:27:57;2.90;99.90
14908;DHT22;7545;52.092;7.006;2023-03-02T09:30:22;3.10;99.90
14908;DHT22;7545;52.092;7.006;2023-03-02T09:32:48;3.10;99.90
14908;DHT22;7545;52.092;7.006;2023-03-02T09:35:14;3.30;99.90
14908;DHT22;7545;52.092;7.006;2023-03-02T09:37:40;3.30;99.90
14908;DHT22;7545;52.092;7.006;2023-03-02T09:40:24;3.30;99.90
14908;DHT22;7545;52.092;7.006;2023-03-02T09:51:11;3.60;99.90
14908;DHT22;7545;52.092;7.006;2023-03-02T09:53:46;3.70;99.90
14908;DHT22;7545;52.092;7.006;2023-03-02T09:56:17;3.70;99.90
14908;DHT22;7545;52.092;7.006;2023-03-02T09:58:48;3.80;99.90
14908;DHT22;7545;52.092;7.006;2023-03-02T10:01:25;3.80;99.90
14908;DHT22;7545;52.092;7.006;2023-03-02T10:03:59;3.90;99.90
14908;DHT22;7545;52.092;7.006;2023-03-02T10:06:28;4.00;99.90
14908;DHT22;7545;52.092;7.006;2023-03-02T10:08:54;4.00;99.90
14908;DHT22;7545;52.092;7.006;2023-03-02T10:11:21;4.10;99.90
14908;DHT22;7545;52.092;7.006;2023-03-02T10:13:54;4.10;99.90
14908;DHT22;7545;52.092;7.006;2023-03-02T10:16:37;4.20;99.90
14908;DHT22;7545;52.092;7.006;2023-03-02T10:21:46;4.30;99.90
14908;DHT22;7545;52.092;7.006;2023-03-02T10:27:37;4.50;99.90
14908;DHT22;7545;52.092;7.006;2023-03-02T10:30:34;4.60;99.90
14908;DHT22;7545;52.092;7.006;2023-03-02T10:33:08;4.80;99.90
14908;DHT22;7545;52.092;7.006;2023-03-02T10:35:36;4.90;99.90
14908;DHT22;7545;52.092;7.006;2023-03-02T10:38:14;4.90;99.90
14908;DHT22;7545;52.092;7.006;2023-03-02T10:40:46;5.00;99.90
14908;DHT22;7545;52.092;7.006;2023-03-02T10:43:24;5.00;99.90
14908;DHT22;7545;52.092;7.006;2023-03-02T10:46:18;5.10;99.90
14908;DHT22;7545;52.092;7.006;2023-03-02T10:51:22;5.20;99.90
14908;DHT22;7545;52.092;7.006;2023-03-02T10:53:48;5.30;99.90
14908;DHT22;7545;52.092;7.006;2023-03-02T10:56:19;5.30;99.90
14908;DHT22;7545;52.092;7.006;2023-03-02T10:58:45;5.40;99.90
14908;DHT22;7545;52.092;7.006;2023-03-02T11:01:17;5.40;99.90
14908;DHT22;7545;52.092;7.006;2023-03-02T11:03:54;5.50;99.90
14908;DHT22;7545;52.092;7.006;2023-03-02T11:06:21;5.60;99.90
14908;DHT22;7545;52.092;7.006;2023-03-02T11:08:58;5.60;99.90
14908;DHT22;7545;52.092;7.006;2023-03-02T11:11:24;5.70;99.90
14908;DHT22;7545;52.092;7.006;2023-03-02T11:13:51;5.80;99.90
14908;DHT22;7545;52.092;7.006;2023-03-02T11:18:53;5.90;99.90
14908;DHT22;7545;52.092;7.006;2023-03-02T11:21:41;5.90;99.90
14908;DHT22;7545;52.092;7.006;2023-03-02T11:24:25;6.00;99.90
14908;DHT22;7545;52.092;7.006;2023-03-02T11:27:15;6.00;99.90
14908;DHT22;7545;52.092;7.006;2023-03-02T11:30:03;6.10;99.90
14908;DHT22;7545;52.092;7.006;2023-03-02T11:32:36;6.10;99.90
14908;DHT22;7545;52.092;7.006;2023-03-02T11:35:09;6.20;99.90
14908;DHT22;7545;52.092;7.006;2023-03-02T11:37:47;6.20;99.90
14908;DHT22;7545;52.092;7.006;2023-03-02T11:40:33;6.30;99.90
14908;DHT22;7545;52.092;7.006;2023-03-02T11:43:01;6.40;99.90
14908;DHT22;7545;52.092;7.006;2023-03-02T11:45:35;6.50;99.90
14908;DHT22;7545;52.092;7.006;2023-03-02T11:48:23;6.50;99.90
14908;DHT22;7545;52.092;7.006;2023-03-02T11:51:03;6.60;99.90
14908;DHT22;7545;52.092;7.006;2023-03-02T11:53:45;6.70;99.90
14908;DHT22;7545;52.092;7.006;2023-03-02T11:56:13;6.70;99.90
14908;DHT22;7545;52.092;7.006;2023-03-02T11:58:42;6.80;99.90
14908;DHT22;7545;52.092;7.006;2023-03-02T12:01:14;6.90;99.90
14908;DHT22;7545;52.092;7.006;2023-03-02T12:03:42;6.90;99.90
14908;DHT22;7545;52.092;7.006;2023-03-02T12:08:53;7.00;99.90
14908;DHT22;7545;52.092;7.006;2023-03-02T12:14:24;7.10;99.90
14908;DHT22;7545;52.092;7.006;2023-03-02T12:16:39;7.20;99.90
14908;DHT22;7545;52.092;7.006;2023-03-02T12:19:25;7.20;99.90
14908;DHT22;7545;52.092;7.006;2023-03-02T12:22:01;7.30;99.90
14908;DHT22;7545;52.092;7.006;2023-03-02T12:24:32;7.30;99.90
14908;DHT22;7545;52.092;7.006;2023-03-02T12:29:41;7.40;99.90
14908;DHT22;7545;52.092;7.006;2023-03-02T12:32:26;7.40;99.90
14908;DHT22;7545;52.092;7.006;2023-03-02T12:35:02;7.50;99.90
14908;DHT22;7545;52.092;7.006;2023-03-02T12:54:17;8.20;99.90
14908;DHT22;7545;52.092;7.006;2023-03-02T12:56:43;8.30;99.90
14908;DHT22;7545;52.092;7.006;2023-03-02T12:59:23;8.40;99.90
14908;DHT22;7545;52.092;7.006;2023-03-02T13:01:49;8.40;99.90
14908;DHT22;7545;52.092;7.006;2023-03-02T13:04:23;8.50;99.90
14908;DHT22;7545;52.092;7.006;2023-03-02T13:06:49;8.60;99.90
14908;DHT22;7545;52.092;7.006;2023-03-02T13:09:15;8.70;99.90
14908;DHT22;7545;52.092;7.006;2023-03-02T13:11:41;8.80;99.90
14908;DHT22;7545;52.092;7.006;2023-03-02T13:14:36;8.90;99.90
14908;DHT22;7545;52.092;7.006;2023-03-02T13:17:04;9.00;99.90
14908;DHT22;7545;52.092;7.006;2023-03-02T13:19:30;9.00;99.90
14908;DHT22;7545;52.092;7.006;2023-03-02T13:21:57;9.10;99.90
14908;DHT22;7545;52.092;7.006;2023-03-02T13:24:43;9.20;99.90
14908;DHT22;7545;52.092;7.006;2023-03-02T13:27:17;9.20;99.90
14908;DHT22;7545;52.092;7.006;2023-03-02T13:29:43;9.30;99.90
14908;DHT22;7545;52.092;7.006;2023-03-02T13:32:18;9.30;99.90
14908;DHT22;7545;52.092;7.006;2023-03-02T13:34:50;9.30;99.90
14908;DHT22;7545;52.092;7.006;2023-03-02T13:37:19;9.40;99.90
14908;DHT22;7545;52.092;7.006;2023-03-02T13:39:55;9.40;99.90
14908;DHT22;7545;52.092;7.006;2023-03-02T13:42:33;9.50;99.90
14908;DHT22;7545;52.092;7.006;2023-03-02T13:45:20;9.50;99.90
14908;DHT22;7545;52.092;7.006;2023-03-02T13:47:45;9.50;99.90
14908;DHT22;7545;52.092;7.006;2023-03-02T13:50:37;9.50;99.90
14908;DHT22;7545;52.092;7.006;2023-03-02T13:53:04;9.50;99.90
14908;DHT22;7545;52.092;7.006;2023-03-02T13:55:32;9.50;99.90
14908;DHT22;7545;52.092;7.006;2023-03-02T13:57:58;9.50;99.90
14908;DHT22;7545;52.092;7.006;2023-03-02T14:00:33;9.50;99.90
14908;DHT22;7545;52.092;7.006;2023-03-02T14:02:59;9.50;99.90
14908;DHT22;7545;52.092;7.006;2023-03-02T14:05:26;9.60;99.90
14908;DHT22;7545;52.092;7.006;2023-03-02T14:07:58;9.60;99.90
14908;DHT22;7545;52.092;7.006;2023-03-02T14:10:24;9.60;99.90
14908;DHT22;7545;52.092;7.006;2023-03-02T14:13:15;9.70;99.90
14908;DHT22;7545;52.092;7.006;2023-03-02T14:15:45;9.70;99.90
14908;DHT22;7545;52.092;7.006;2023-03-02T14:20:50;9.70;99.90
14908;DHT22;7545;52.092;7.006;2023-03-02T14:23:16;9.70;99.90
14908;DHT22;7545;52.092;7.006;2023-03-02T14:25:41;9.70;99.90
14908;DHT22;7545;52.092;7.006;2023-03-02T14:28:11;9.70;99.90
14908;DHT22;7545;52.092;7.006;2023-03-02T14:30:38;9.70;99.90
14908;DHT22;7545;52.092;7.006;2023-03-02T14:33:04;9.70;99.90
14908;DHT22;7545;52.092;7.006;2023-03-02T14:35:30;9.70;99.90
14908;DHT22;7545;52.092;7.006;2023-03-02T14:37:55;9.70;99.90
14908;DHT22;7545;52.092;7.006;2023-03-02T14:40:26;9.70;99.90
14908;DHT22;7545;52.092;7.006;2023-03-02T14:42:52;9.60;99.90
14908;DHT22;7545;52.092;7.006;2023-03-02T14:45:19;9.60;99.90
14908;DHT22;7545;52.092;7.006;2023-03-02T14:47:44;9.60;99.90
14908;DHT22;7545;52.092;7.006;2023-03-02T14:50:10;9.60;99.90
14908;DHT22;7545;52.092;7.006;2023-03-02T14:53:02;9.50;99.90
14908;DHT22;7545;52.092;7.006;2023-03-02T14:55:31;9.60;99.90
14908;DHT22;7545;52.092;7.006;2023-03-02T14:57:59;9.60;99.90
14908;DHT22;7545;52.092;7.006;2023-03-02T15:00:27;9.60;99.90
14908;DHT22;7545;52.092;7.006;2023-03-02T15:02:53;9.60;99.90
14908;DHT22;7545;52.092;7.006;2023-03-02T15:05:19;9.60;99.90
14908;DHT22;7545;52.092;7.006;2023-03-02T15:07:45;9.50;99.90
14908;DHT22;7545;52.092;7.006;2023-03-02T15:10:16;9.50;99.90
14908;DHT22;7545;52.092;7.006;2023-03-02T15:12:42;9.50;99.90
14908;DHT22;7545;52.092;7.006;2023-03-02T15:15:09;9.50;99.90
14908;DHT22;7545;52.092;7.006;2023-03-02T15:17:35;9.40;99.90
14908;DHT22;7545;52.092;7.006;2023-03-02T15:20:00;9.30;99.90
14908;DHT22;7545;52.092;7.006;2023-03-02T15:22:26;9.30;99.90
14908;DHT22;7545;52.092;7.006;2023-03-02T15:24:52;9.30;99.90
14908;DHT22;7545;52.092;7.006;2023-03-02T15:27:17;9.30;99.90
14908;DHT22;7545;52.092;7.006;2023-03-02T15:29:46;9.30;99.90
14908;DHT22;7545;52.092;7.006;2023-03-02T15:32:12;9.30;99.90
14908;DHT22;7545;52.092;7.006;2023-03-02T15:34:38;9.30;99.90
14908;DHT22;7545;52.092;7.006;2023-03-02T15:37:04;9.40;99.90
14908;DHT22;7545;52.092;7.006;2023-03-02T15:39:30;9.40;99.90
14908;DHT22;7545;52.092;7.006;2023-03-02T15:41:56;9.40;99.90
14908;DHT22;7545;52.092;7.006;2023-03-02T15:44:23;9.40;99.90
14908;DHT22;7545;52.092;7.006;2023-03-02T15:46:52;9.40;99.90
14908;DHT22;7545;52.092;7.006;2023-03-02T15:49:19;9.40;99.90
14908;DHT22;7545;52.092;7.006;2023-03-02T15:51:49;9.30;99.90
14908;DHT22;7545;52.092;7.006;2023-03-02T15:54:19;9.30;99.90
14908;DHT22;7545;52.092;7.006;2023-03-02T15:56:45;9.30;99.90
14908;DHT22;7545;52.092;7.006;2023-03-02T15:59:16;9.20;99.90
14908;DHT22;7545;52.092;7.006;2023-03-02T16:01:42;9.20;99.90
14908;DHT22;7545;52.092;7.006;2023-03-02T16:04:07;9.10;99.90
14908;DHT22;7545;52.092;7.006;2023-03-02T16:06:33;9.10;99.90
14908;DHT22;7545;52.092;7.006;2023-03-02T16:08:59;9.00;99.90
14908;DHT22;7545;52.092;7.006;2023-03-02T16:11:25;8.90;99.90
14908;DHT22;7545;52.092;7.006;2023-03-02T16:13:51;8.90;99.90
14908;DHT22;7545;52.092;7.006;2023-03-02T16:16:18;8.90;99.90
14908;DHT22;7545;52.092;7.006;2023-03-02T16:18:52;8.90;99.90
14908;DHT22;7545;52.092;7.006;2023-03-02T16:21:18;8.90;99.90
14908;DHT22;7545;52.092;7.006;2023-03-02T16:23:44;8.90;99.90
14908;DHT22;7545;52.092;7.006;2023-03-02T16:26:14;8.80;99.90
14908;DHT22;7545;52.092;7.006;2023-03-02T16:28:40;8.80;99.90
14908;DHT22;7545;52.092;7.006;2023-03-02T16:31:11;8.70;99.90
14908;DHT22;7545;52.092;7.006;2023-03-02T16:33:38;8.60;99.90
14908;DHT22;7545;52.092;7.006;2023-03-02T16:36:05;8.40;99.90
14908;DHT22;7545;52.092;7.006;2023-03-02T16:38:31;8.30;99.90
14908;DHT22;7545;52.092;7.006;2023-03-02T16:40:57;8.20;99.90
14908;DHT22;7545;52.092;7.006;2023-03-02T16:43:23;8.10;99.90
14908;DHT22;7545;52.092;7.006;2023-03-02T16:45:50;8.00;99.90
14908;DHT22;7545;52.092;7.006;2023-03-02T16:48:16;7.90;99.90
14908;DHT22;7545;52.092;7.006;2023-03-02T16:50:42;7.80;99.90
14908;DHT22;7545;52.092;7.006;2023-03-02T16:53:08;7.70;99.90
14908;DHT22;7545;52.092;7.006;2023-03-02T16:55:33;7.60;99.90
14908;DHT22;7545;52.092;7.006;2023-03-02T16:57:59;7.50;99.90
14908;DHT22;7545;52.092;7.006;2023-03-02T17:00:25;7.50;99.90
14908;DHT22;7545;52.092;7.006;2023-03-02T17:02:51;7.40;99.90
14908;DHT22;7545;52.092;7.006;2023-03-02T17:05:19;7.40;99.90
14908;DHT22;7545;52.092;7.006;2023-03-02T17:07:45;7.30;99.90
14908;DHT22;7545;52.092;7.006;2023-03-02T17:10:14;7.30;99.90